Search for airport 
image banner adimage banner adimage banner ad
image banner ad

CA24 - Scripps Memorial Hospital La Jolla

Located in La Jolla, United States

ICAO - CA24, IATA -

Data provided by Airmate  

General information

Coordinates: N32°53'11" W117°13'32"
Elevation is 340 feet MSL.
 
View others Airports in California

Operational data

Special qualification required
Current time UTC:
Current local time:
Weather at : KNKX - Miramar Mcas ( 8 km )
METAR: KNKX 150955Z 00000KT 10SM CLR 16/14 A2985 RMK AO2 SLP102 T01610139 $
TAF: TAF KNKX 1503/1603 VRB05KT 9999 SKC QNH2981INS TEMPO 1508/1514 4800 BR BKN007 FM151830 28010KT 9999 FEW200 QNH2977INS T16/1513Z T31/1520Z
View NOTAMs / SUP AIP / TFR affecting this airport [VIEW]
Communications frequencies: [VIEW]

Runways:

Airport contact information

Address: La Jolla United States

Satellite view of CA24